Time;durP1;ratioP1;P1;durP2;ratioP2;P2;SDS_P1;SDS_P2;PMS_P1;PMS_P2;Temp;Humidity;BMP_temperature;BMP_pressure;BME280_temperature;BME280_humidity;BME280_pressure;Samples;Min_cycle;Max_cycle;Signal;HPM_P1;HPM_P2
2021/09/16 00:00:00;;;;;;;26.20;19.47;;;18.50;1.00;;;;;;5065476;28;20213;-85
2021/09/16 00:02:26;;;;;;;27.53;19.37;;;18.40;1.00;;;;;;5070637;28;20186;-85
2021/09/16 00:04:52;;;;;;;23.90;19.63;;;18.40;1.00;;;;;;5074976;28;20209;-84
2021/09/16 00:07:17;;;;;;;23.93;20.33;;;18.50;1.00;;;;;;5071558;28;20185;-85
2021/09/16 00:09:43;;;;;;;27.33;20.77;;;18.60;1.00;;;;;;5063717;28;20247;-84
2021/09/16 00:12:09;;;;;;;22.60;19.20;;;18.40;1.00;;;;;;5067808;28;20182;-84
2021/09/16 00:14:34;;;;;;;24.57;19.90;;;18.40;1.00;;;;;;5075636;28;20196;-83
2021/09/16 00:17:00;;;;;;;28.27;20.20;;;;;;;;;;5074589;28;20191;-83
2021/09/16 00:19:26;;;;;;;23.47;18.63;;;18.40;1.00;;;;;;5076745;28;20236;-84
2021/09/16 00:21:52;;;;;;;26.10;19.13;;;;;;;;;;5073887;28;20189;-84
2021/09/16 00:24:18;;;;;;;27.13;19.90;;;;;;;;;;5061809;28;20200;-84
2021/09/16 00:26:44;;;;;;;25.83;20.20;;;18.40;1.00;;;;;;5071572;28;20196;-84
2021/09/16 00:29:11;;;;;;;24.77;20.23;;;;;;;;;;5072477;28;20715;-85
2021/09/16 00:31:37;;;;;;;26.63;20.40;;;;;;;;;;5075346;28;20203;-85
2021/09/16 00:34:03;;;;;;;26.07;19.57;;;18.40;1.00;;;;;;5074744;28;20194;-85
2021/09/16 00:36:29;;;;;;;24.37;20.20;;;18.30;1.00;;;;;;5065334;28;20195;-85
2021/09/16 00:38:55;;;;;;;24.23;18.90;;;;;;;;;;5070883;28;20218;-85
2021/09/16 00:41:21;;;;;;;29.03;20.13;;;;;;;;;;5072316;28;20216;-85
2021/09/16 00:43:47;;;;;;;27.53;20.70;;;18.40;1.00;;;;;;5068363;28;20203;-85
2021/09/16 00:46:12;;;;;;;24.07;18.90;;;18.30;1.00;;;;;;5076078;28;20730;-85
2021/09/16 00:48:38;;;;;;;24.10;18.80;;;18.30;1.00;;;;;;5070876;28;20214;-84
2021/09/16 00:51:04;;;;;;;23.50;18.50;;;;;;;;;;5069610;28;20210;-85
2021/09/16 00:53:31;;;;;;;24.73;18.83;;;18.20;1.00;;;;;;5074413;28;20197;-85
2021/09/16 00:55:59;;;;;;;23.80;19.60;;;18.20;1.00;;;;;;5073550;28;20200;-85
2021/09/16 00:58:27;;;;;;;24.20;20.33;;;18.30;1.00;;;;;;5070647;28;20220;-85
2021/09/16 01:00:55;;;;;;;25.67;18.67;;;18.30;1.00;;;;;;5070265;28;20193;-85
2021/09/16 01:03:24;;;;;;;26.50;18.80;;;18.20;1.00;;;;;;5069210;28;20288;-85
2021/09/16 01:05:51;;;;;;;23.60;19.77;;;18.20;1.00;;;;;;5070662;28;20196;-85
2021/09/16 01:08:18;;;;;;;22.53;19.10;;;18.20;1.00;;;;;;5072131;28;20219;-85
2021/09/16 01:10:43;;;;;;;20.90;17.83;;;18.20;1.00;;;;;;5067815;28;20195;-85
2021/09/16 01:13:10;;;;;;;23.90;18.73;;;18.10;1.00;;;;;;5075175;28;20206;-85
2021/09/16 01:15:36;;;;;;;22.80;17.37;;;18.30;1.00;;;;;;5072342;28;20237;-84
2021/09/16 01:18:03;;;;;;;22.23;18.17;;;18.30;1.00;;;;;;5066758;28;20229;-85
2021/09/16 01:20:28;;;;;;;21.63;18.67;;;18.10;1.00;;;;;;5066169;28;20199;-85
2021/09/16 01:22:54;;;;;;;25.57;18.50;;;18.10;1.00;;;;;;5074932;28;20567;-85
2021/09/16 01:25:26;;;;;;;20.20;18.00;;;18.10;1.00;;;;;;5066394;28;20186;-84
2021/09/16 01:27:54;;;;;;;23.37;18.73;;;18.20;1.00;;;;;;5068158;28;20224;-85
2021/09/16 01:30:20;;;;;;;22.47;17.73;;;18.20;1.00;;;;;;5068631;28;20188;-86
2021/09/16 01:32:48;;;;;;;20.43;16.67;;;18.10;1.00;;;;;;5070926;28;20565;-85
2021/09/16 01:35:13;;;;;;;24.10;18.33;;;18.20;1.00;;;;;;5065923;28;20236;-85
2021/09/16 01:37:39;;;;;;;21.07;17.50;;;;;;;;;;5070718;28;20204;-85
2021/09/16 01:40:06;;;;;;;22.50;18.70;;;18.10;1.00;;;;;;5073393;28;20189;-85
2021/09/16 01:42:32;;;;;;;23.23;18.07;;;18.10;1.00;;;;;;5068492;28;20197;-84
2021/09/16 01:44:57;;;;;;;20.87;18.37;;;18.10;1.00;;;;;;5064304;28;20222;-84
2021/09/16 01:47:23;;;;;;;25.07;17.60;;;18.10;1.00;;;;;;5071159;28;20189;-85
2021/09/16 01:49:49;;;;;;;27.10;19.70;;;18.00;1.00;;;;;;5069178;28;20242;-84
2021/09/16 01:52:16;;;;;;;21.30;18.20;;;18.00;1.00;;;;;;5068519;28;20188;-85
2021/09/16 01:54:42;;;;;;;25.87;17.97;;;17.90;1.00;;;;;;5073920;28;20189;-84
2021/09/16 01:57:08;;;;;;;22.63;17.00;;;18.00;1.00;;;;;;5071030;28;20189;-84
2021/09/16 01:59:34;;;;;;;23.00;17.20;;;;;;;;;;5073456;28;20365;-85
2021/09/16 02:02:00;;;;;;;19.80;17.33;;;18.00;1.00;;;;;;5074477;28;20192;-84
2021/09/16 02:04:25;;;;;;;23.43;19.27;;;18.00;1.00;;;;;;5073646;28;20203;-85
2021/09/16 02:06:51;;;;;;;24.10;17.97;;;18.00;1.00;;;;;;5064033;28;20190;-84
2021/09/16 02:09:17;;;;;;;22.37;18.10;;;18.00;1.00;;;;;;5073020;28;20204;-84
2021/09/16 02:11:42;;;;;;;21.77;18.40;;;18.00;1.00;;;;;;5062075;28;20191;-85
2021/09/16 02:14:08;;;;;;;22.50;18.43;;;18.00;1.00;;;;;;5068343;28;20201;-84
2021/09/16 02:16:34;;;;;;;22.90;18.97;;;18.00;1.00;;;;;;5070416;28;20216;-84
2021/09/16 02:18:59;;;;;;;26.97;19.57;;;18.00;1.00;;;;;;5072319;28;20585;-84
2021/09/16 02:21:25;;;;;;;23.90;18.90;;;18.00;1.00;;;;;;5070407;28;20561;-84
2021/09/16 02:23:50;;;;;;;24.57;19.77;;;17.90;1.00;;;;;;5065546;28;20728;-85
2021/09/16 02:26:16;;;;;;;25.37;20.03;;;17.90;1.00;;;;;;5069255;28;20205;-85
2021/09/16 02:28:42;;;;;;;26.83;18.90;;;18.00;1.00;;;;;;5073091;28;20197;-84
2021/09/16 02:31:07;;;;;;;22.30;18.83;;;18.00;1.00;;;;;;5066389;28;20197;-84
2021/09/16 02:33:33;;;;;;;24.27;19.07;;;18.10;1.00;;;;;;5069645;28;20207;-84
2021/09/16 02:36:00;;;;;;;26.60;19.77;;;18.00;1.00;;;;;;5071167;28;20203;-85
2021/09/16 02:38:26;;;;;;;31.70;19.77;;;18.00;1.00;;;;;;5061751;28;20271;-84
2021/09/16 02:40:51;;;;;;;25.53;18.73;;;18.00;1.00;;;;;;5061826;28;20182;-85
2021/09/16 02:43:17;;;;;;;24.77;19.17;;;18.00;1.00;;;;;;5068631;28;20192;-85
2021/09/16 02:45:44;;;;;;;25.50;19.47;;;;;;;;;;5066840;28;20202;-85
2021/09/16 02:48:10;;;;;;;24.90;19.17;;;18.10;1.00;;;;;;5063984;28;20193;-85
2021/09/16 02:50:36;;;;;;;25.17;20.07;;;18.10;1.00;;;;;;5067431;28;20572;-85
2021/09/16 02:53:02;;;;;;;26.50;19.53;;;18.00;1.00;;;;;;5063683;28;20203;-84
2021/09/16 02:55:27;;;;;;;25.53;18.90;;;18.00;1.00;;;;;;5062708;28;20205;-84
2021/09/16 02:57:53;;;;;;;23.90;19.07;;;18.00;1.00;;;;;;5066805;28;20213;-85
2021/09/16 03:00:19;;;;;;;23.70;18.67;;;17.90;1.00;;;;;;5070378;28;20574;-85
2021/09/16 03:02:44;;;;;;;24.83;19.93;;;18.00;1.00;;;;;;5062478;28;20271;-85
2021/09/16 03:05:10;;;;;;;24.67;19.47;;;18.00;1.00;;;;;;5072252;28;20209;-85
2021/09/16 03:07:36;;;;;;;27.93;20.27;;;;;;;;;;5068777;28;20189;-84
2021/09/16 03:10:04;;;;;;;27.27;20.03;;;18.10;1.00;;;;;;5069727;28;20559;-85
2021/09/16 03:12:29;;;;;;;32.67;20.57;;;18.20;1.00;;;;;;5074071;28;20642;-85
2021/09/16 03:14:55;;;;;;;23.07;19.00;;;18.10;1.00;;;;;;5066099;28;20209;-85
2021/09/16 03:17:20;;;;;;;23.60;20.23;;;18.10;1.00;;;;;;5070103;28;20716;-85
2021/09/16 03:19:46;;;;;;;25.93;19.90;;;18.10;1.00;;;;;;5072377;28;20220;-85
2021/09/16 03:22:12;;;;;;;28.63;21.67;;;18.20;1.00;;;;;;5069498;28;20205;-85
2021/09/16 03:24:38;;;;;;;28.37;20.67;;;18.10;1.00;;;;;;5067100;28;20184;-84
2021/09/16 03:27:04;;;;;;;27.27;21.17;;;18.20;1.00;;;;;;5059893;28;20191;-85
2021/09/16 03:29:30;;;;;;;27.07;20.53;;;18.10;1.00;;;;;;5064745;28;20184;-85
2021/09/16 03:31:55;;;;;;;26.30;20.53;;;18.20;1.00;;;;;;5071874;28;20194;-85
2021/09/16 03:34:21;;;;;;;25.83;20.43;;;18.10;1.00;;;;;;5069036;28;20191;-85
2021/09/16 03:36:47;;;;;;;26.60;20.87;;;18.00;1.00;;;;;;5062045;28;20283;-84
2021/09/16 03:39:13;;;;;;;26.63;20.50;;;18.00;1.00;;;;;;5068380;28;20686;-85
2021/09/16 03:41:39;;;;;;;26.53;20.23;;;18.00;1.00;;;;;;5065517;28;20723;-85
2021/09/16 03:44:04;;;;;;;26.20;20.10;;;18.00;1.00;;;;;;5064677;28;20187;-85
2021/09/16 03:46:30;;;;;;;27.47;20.63;;;18.10;1.00;;;;;;5062986;28;20183;-84
2021/09/16 03:48:56;;;;;;;25.43;20.50;;;18.00;1.00;;;;;;5069972;28;20283;-84
2021/09/16 03:51:21;;;;;;;27.60;20.33;;;18.10;1.00;;;;;;5069546;28;20195;-84
2021/09/16 03:53:47;;;;;;;25.37;20.80;;;18.00;1.00;;;;;;5073713;28;20196;-84
2021/09/16 03:56:13;;;;;;;30.47;22.03;;;18.00;1.00;;;;;;5058845;28;20286;-85
2021/09/16 03:58:38;;;;;;;29.20;22.50;;;18.00;1.00;;;;;;5061052;28;20232;-84
2021/09/16 04:01:04;;;;;;;26.90;21.00;;;17.90;1.00;;;;;;5069996;28;20189;-84
2021/09/16 04:03:29;;;;;;;30.00;22.80;;;18.00;1.00;;;;;;5062104;28;20189;-85
2021/09/16 04:05:56;;;;;;;27.43;21.07;;;;;;;;;;5066766;28;20215;-84
2021/09/16 04:08:22;;;;;;;27.80;21.43;;;;;;;;;;5067744;28;20280;-84
2021/09/16 04:10:48;;;;;;;24.93;19.70;;;;;;;;;;5073540;28;20582;-85
2021/09/16 04:13:13;;;;;;;22.80;19.23;;;17.90;1.00;;;;;;5071747;28;20193;-84
2021/09/16 04:15:40;;;;;;;24.93;19.97;;;;;;;;;;5066435;28;20316;-85
2021/09/16 04:18:06;;;;;;;26.50;19.43;;;;;;;;;;5071723;28;20291;-86
2021/09/16 04:20:32;;;;;;;29.43;20.00;;;;;;;;;;5073829;28;20699;-85
2021/09/16 04:22:58;;;;;;;26.13;19.80;;;;;;;;;;5073128;28;20252;-87
2021/09/16 04:25:24;;;;;;;23.70;19.53;;;;;;;;;;5067960;28;20223;-85
2021/09/16 04:27:50;;;;;;;26.70;19.40;;;17.90;1.00;;;;;;5056302;28;20221;-85
2021/09/16 04:30:15;;;;;;;23.17;19.33;;;17.90;1.00;;;;;;5073056;28;20651;-86
2021/09/16 04:32:42;;;;;;;28.97;20.53;;;17.90;1.00;;;;;;5071971;28;20298;-86
2021/09/16 04:35:09;;;;;;;25.20;19.87;;;17.90;1.00;;;;;;5072895;28;20192;-85
2021/09/16 04:37:38;;;;;;;28.70;20.80;;;17.90;1.00;;;;;;5072279;28;20190;-85
2021/09/16 04:40:05;;;;;;;29.80;20.07;;;17.90;1.00;;;;;;5074406;28;20221;-84
2021/09/16 04:42:31;;;;;;;25.57;19.37;;;17.80;1.00;;;;;;5071829;28;20206;-85
2021/09/16 04:44:56;;;;;;;27.17;19.63;;;17.80;1.00;;;;;;5069308;28;20220;-84
2021/09/16 04:47:22;;;;;;;24.00;18.87;;;17.80;1.00;;;;;;5075466;28;20255;-84
2021/09/16 04:49:47;;;;;;;28.50;19.87;;;17.80;1.00;;;;;;5077093;28;20199;-84
2021/09/16 04:52:13;;;;;;;26.53;20.47;;;;;;;;;;5061587;28;20619;-85
2021/09/16 04:54:39;;;;;;;26.80;19.17;;;17.80;1.00;;;;;;5076153;28;20199;-85
2021/09/16 04:57:05;;;;;;;24.53;19.27;;;17.80;1.00;;;;;;5076374;28;20200;-86
2021/09/16 04:59:30;;;;;;;24.67;20.50;;;17.80;1.00;;;;;;5076066;28;20205;-86
2021/09/16 05:01:56;;;;;;;24.37;19.57;;;17.80;1.00;;;;;;5074549;28;20185;-86
2021/09/16 05:04:22;;;;;;;25.57;19.87;;;17.80;1.00;;;;;;5065326;28;20209;-86
2021/09/16 05:06:47;;;;;;;27.60;19.73;;;17.80;1.00;;;;;;5077763;28;20276;-86
2021/09/16 05:09:13;;;;;;;25.23;20.23;;;17.80;1.00;;;;;;5078059;28;20568;-85
2021/09/16 05:11:41;;;;;;;28.33;19.77;;;17.80;1.00;;;;;;5078260;28;20186;-86
2021/09/16 05:14:08;;;;;;;24.47;19.57;;;17.80;1.00;;;;;;5076152;28;20200;-85
2021/09/16 05:16:34;;;;;;;18.27;15.23;;;17.80;1.00;;;;;;5079596;28;20189;-86
2021/09/16 05:19:00;;;;;;;16.93;14.23;;;17.70;1.00;;;;;;5078832;28;20222;-86
2021/09/16 05:21:25;;;;;;;13.80;12.03;;;17.70;1.00;;;;;;5075815;28;20185;-85
2021/09/16 05:23:53;;;;;;;14.73;11.40;;;17.70;1.00;;;;;;5082305;28;20195;-86
2021/09/16 05:26:18;;;;;;;19.10;12.83;;;17.70;1.00;;;;;;5077697;28;20185;-86
2021/09/16 05:28:44;;;;;;;18.43;13.13;;;17.70;1.00;;;;;;5077066;28;20242;-86
2021/09/16 05:31:10;;;;;;;17.37;11.97;;;;;;;;;;5075864;28;20184;-86
2021/09/16 05:33:36;;;;;;;14.50;11.83;;;17.70;1.00;;;;;;5076939;28;20219;-86
2021/09/16 05:36:03;;;;;;;14.20;10.57;;;17.60;1.00;;;;;;5078073;28;20662;-86
2021/09/16 05:38:29;;;;;;;13.23;9.20;;;17.60;1.00;;;;;;5069688;28;20213;-88
2021/09/16 05:40:55;;;;;;;12.77;9.60;;;17.50;1.00;;;;;;5067859;28;20206;-87
2021/09/16 05:43:21;;;;;;;11.90;10.10;;;17.40;1.00;;;;;;5072638;28;20192;-88
2021/09/16 05:45:47;;;;;;;10.60;8.87;;;17.40;1.00;;;;;;5072694;28;20193;-86
2021/09/16 05:48:12;;;;;;;10.30;9.07;;;17.40;1.00;;;;;;5061975;28;20200;-86
2021/09/16 05:50:38;;;;;;;11.50;8.40;;;17.50;1.00;;;;;;5066436;28;20190;-85
2021/09/16 05:53:04;;;;;;;14.87;9.77;;;;;;;;;;5077756;28;20663;-87
2021/09/16 05:55:30;;;;;;;11.23;9.13;;;17.30;1.00;;;;;;5071756;28;20741;-87
2021/09/16 05:57:56;;;;;;;11.03;9.20;;;17.40;1.00;;;;;;5075132;28;20227;-87
2021/09/16 06:00:23;;;;;;;14.30;9.30;;;17.30;1.00;;;;;;5073800;28;20195;-86
2021/09/16 06:02:50;;;;;;;9.40;8.17;;;17.30;1.00;;;;;;5079337;28;20570;-86
2021/09/16 06:05:16;;;;;;;9.07;8.03;;;17.30;1.00;;;;;;5074270;28;20216;-86
2021/09/16 06:07:42;;;;;;;8.17;7.00;;;17.30;1.00;;;;;;5067392;28;20249;-88
2021/09/16 06:10:09;;;;;;;10.33;7.70;;;17.20;1.00;;;;;;5076868;28;20819;-87
2021/09/16 06:12:34;;;;;;;8.40;7.17;;;17.20;1.00;;;;;;5062827;28;20318;-87
2021/09/16 06:15:00;;;;;;;8.97;7.23;;;17.10;1.00;;;;;;5069869;28;20204;-88
2021/09/16 06:17:26;;;;;;;7.93;7.10;;;17.10;1.00;;;;;;5073197;28;20304;-87
2021/09/16 06:19:51;;;;;;;8.17;6.83;;;17.20;1.00;;;;;;5073079;28;20211;-87
2021/09/16 06:22:18;;;;;;;8.70;7.07;;;17.20;1.00;;;;;;5074332;28;20191;-87
2021/09/16 06:24:44;;;;;;;7.97;6.77;;;17.10;1.00;;;;;;5076507;28;20178;-86
2021/09/16 06:27:09;;;;;;;7.60;6.90;;;17.10;1.00;;;;;;5078612;28;20691;-87
2021/09/16 06:29:35;;;;;;;7.77;6.73;;;17.20;1.00;;;;;;5076377;28;20195;-87
2021/09/16 06:32:01;;;;;;;8.33;6.13;;;17.20;1.00;;;;;;5075748;28;20268;-86
2021/09/16 06:34:26;;;;;;;6.53;5.53;;;17.30;1.00;;;;;;5074267;28;20291;-87
2021/09/16 06:36:52;;;;;;;7.23;5.93;;;17.40;1.00;;;;;;5059905;28;20245;-87
2021/09/16 06:39:18;;;;;;;6.57;5.83;;;;;;;;;;5077572;28;20221;-87
2021/09/16 06:41:44;;;;;;;6.40;5.70;;;17.50;1.00;;;;;;5068737;28;20193;-87
2021/09/16 06:44:10;;;;;;;7.93;6.67;;;17.50;1.00;;;;;;5067699;28;20184;-87
2021/09/16 06:46:36;;;;;;;8.77;6.93;;;17.30;1.00;;;;;;5079436;28;20189;-87
2021/09/16 06:49:01;;;;;;;7.33;6.50;;;17.30;1.00;;;;;;5077965;28;20187;-87
2021/09/16 06:51:27;;;;;;;7.43;6.60;;;17.20;1.00;;;;;;5077893;28;20225;-87
2021/09/16 06:53:54;;;;;;;9.30;7.77;;;17.10;1.00;;;;;;5078206;28;20640;-87
2021/09/16 06:56:20;;;;;;;9.83;8.20;;;;;;;;;;5075434;28;20189;-87
2021/09/16 06:58:46;;;;;;;8.60;7.73;;;;;;;;;;5072516;28;20220;-87
2021/09/16 07:01:12;;;;;;;10.77;8.30;;;17.00;1.00;;;;;;5078932;28;20191;-87
2021/09/16 07:03:38;;;;;;;9.60;8.60;;;;;;;;;;5079066;28;20199;-87
2021/09/16 07:06:04;;;;;;;10.00;7.77;;;;;;;;;;5080759;28;20206;-87
2021/09/16 07:08:29;;;;;;;9.53;7.53;;;16.80;1.00;;;;;;5078325;28;20220;-87
2021/09/16 07:10:55;;;;;;;12.93;8.57;;;;;;;;;;5065742;28;20297;-86
2021/09/16 07:13:21;;;;;;;10.40;8.40;;;;;;;;;;5076796;28;20212;-86
2021/09/16 07:15:47;;;;;;;8.80;7.90;;;16.60;1.00;;;;;;5075913;28;20210;-85
2021/09/16 07:18:13;;;;;;;8.60;7.60;;;16.60;1.00;;;;;;5067618;28;20566;-86
2021/09/16 07:20:38;;;;;;;8.67;6.93;;;16.70;1.00;;;;;;5078217;28;20206;-86
2021/09/16 07:23:04;;;;;;;7.00;6.23;;;16.70;1.00;;;;;;5076440;28;20689;-86
2021/09/16 07:25:30;;;;;;;6.73;6.03;;;16.80;1.00;;;;;;5076222;28;20222;-86
2021/09/16 07:27:56;;;;;;;7.93;6.03;;;;;;;;;;5077403;28;20193;-86
2021/09/16 07:30:22;;;;;;;6.60;5.80;;;16.80;1.00;;;;;;5072946;28;20193;-86
2021/09/16 07:32:48;;;;;;;8.33;6.07;;;;;;;;;;5071755;28;20764;-85
2021/09/16 07:35:14;;;;;;;8.40;5.60;;;;;;;;;;5070023;28;20208;-85
2021/09/16 07:37:40;;;;;;;7.83;5.27;;;17.00;1.00;;;;;;5076152;28;20194;-85
2021/09/16 07:40:06;;;;;;;6.97;5.43;;;17.00;1.00;;;;;;5074474;28;20718;-86
2021/09/16 07:42:32;;;;;;;7.17;5.40;;;;;;;;;;5077370;28;20230;-86
2021/09/16 07:44:57;;;;;;;5.57;4.77;;;17.00;1.00;;;;;;5069701;28;20193;-86
2021/09/16 07:47:23;;;;;;;5.77;4.67;;;17.10;1.00;;;;;;5080204;28;20181;-85
2021/09/16 07:49:49;;;;;;;5.60;4.67;;;17.40;1.00;;;;;;5078714;28;20189;-85
2021/09/16 07:52:15;;;;;;;6.57;4.53;;;17.50;1.00;;;;;;5077862;28;20194;-85
2021/09/16 07:54:42;;;;;;;5.47;4.73;;;;;;;;;;5076114;28;20658;-85
2021/09/16 07:57:07;;;;;;;4.20;3.83;;;17.90;1.00;;;;;;5072650;28;20294;-85
2021/09/16 07:59:33;;;;;;;4.27;3.53;;;18.40;1.00;;;;;;5074528;28;20235;-85
2021/09/16 08:01:59;;;;;;;5.20;3.63;;;18.00;1.00;;;;;;5076735;28;20302;-86
2021/09/16 08:04:25;;;;;;;3.87;3.43;;;17.90;1.00;;;;;;5078509;28;20201;-86
2021/09/16 08:06:51;;;;;;;6.50;3.80;;;17.80;1.00;;;;;;5079265;28;20191;-86
2021/09/16 08:09:17;;;;;;;5.10;3.30;;;17.80;1.00;;;;;;5077171;28;20181;-86
2021/09/16 08:11:42;;;;;;;7.70;3.77;;;17.80;1.00;;;;;;5073854;28;20285;-86
2021/09/16 08:14:08;;;;;;;4.80;4.00;;;18.00;1.00;;;;;;5063740;28;20192;-86
2021/09/16 08:16:35;;;;;;;4.07;3.63;;;18.10;1.00;;;;;;5078482;28;20299;-85
2021/09/16 08:19:02;;;;;;;4.43;3.90;;;18.30;1.00;;;;;;5079455;28;20748;-86
2021/09/16 08:21:28;;;;;;;4.87;3.70;;;;;;;;;;5083408;28;20193;-86
2021/09/16 08:23:54;;;;;;;4.40;3.20;;;18.30;1.00;;;;;;5079300;28;20192;-86
2021/09/16 08:26:20;;;;;;;3.90;2.83;;;18.30;1.00;;;;;;5083152;28;20196;-86
2021/09/16 08:28:46;;;;;;;3.23;2.30;;;18.20;1.00;;;;;;5081897;28;20189;-85
2021/09/16 08:31:12;;;;;;;2.40;2.20;;;18.20;1.00;;;;;;5082259;28;20692;-86
2021/09/16 08:33:38;;;;;;;2.60;2.40;;;17.80;1.00;;;;;;5071943;28;20210;-86
2021/09/16 08:36:04;;;;;;;3.20;2.40;;;17.70;1.00;;;;;;5076459;28;20191;-86
2021/09/16 08:38:30;;;;;;;3.57;2.40;;;17.70;1.00;;;;;;5083080;28;20219;-86
2021/09/16 08:40:56;;;;;;;4.43;2.47;;;18.20;1.00;;;;;;5083063;28;20233;-86
2021/09/16 08:43:28;;;;;;;4.23;2.80;;;17.70;1.00;;;;;;5080839;28;20176;-86
2021/09/16 08:45:53;;;;;;;3.73;2.50;;;17.80;1.00;;;;;;5072344;28;20189;-86
2021/09/16 08:48:19;;;;;;;4.00;2.63;;;17.80;1.00;;;;;;5084548;28;20180;-85
2021/09/16 08:50:45;;;;;;;3.07;2.70;;;18.00;1.00;;;;;;5083813;28;20560;-85
2021/09/16 08:53:17;;;;;;;3.20;2.47;;;19.70;1.00;;;;;;5072825;28;20290;-85
2021/09/16 08:55:45;;;;;;;3.47;2.40;;;18.30;1.00;;;;;;5066474;28;20200;-85
2021/09/16 08:58:11;;;;;;;3.47;2.60;;;18.30;1.00;;;;;;5082039;28;20212;-86
2021/09/16 09:00:37;;;;;;;3.77;3.03;;;18.50;1.00;;;;;;5079568;28;20224;-86
2021/09/16 09:03:04;;;;;;;2.40;2.20;;;18.60;1.00;;;;;;5077134;28;20188;-87
2021/09/16 09:05:30;;;;;;;2.33;1.70;;;18.60;1.00;;;;;;5082855;28;20202;-87
2021/09/16 09:08:01;;;;;;;2.07;1.77;;;18.40;1.00;;;;;;5074839;28;20186;-87
2021/09/16 09:10:47;;;;;;;4.97;1.50;;;18.30;1.00;;;;;;5079571;28;20188;-88
2021/09/16 09:13:17;;;;;;;2.53;2.17;;;18.30;1.00;;;;;;5080949;28;20182;-88
2021/09/16 09:15:45;;;;;;;3.97;2.30;;;18.20;1.00;;;;;;5079363;28;20297;-86
2021/09/16 09:18:19;;;;;;;3.23;2.20;;;18.30;1.00;;;;;;5078649;28;20242;-86
2021/09/16 09:21:02;;;;;;;3.57;3.03;;;18.40;1.00;;;;;;5076685;28;20184;-86
2021/09/16 09:23:50;;;;;;;2.10;1.60;;;18.70;1.00;;;;;;5084593;28;20187;-86
2021/09/16 09:26:26;;;;;;;4.37;1.73;;;18.90;1.00;;;;;;5083218;28;20176;-87
2021/09/16 09:28:55;;;;;;;2.80;1.60;;;18.90;1.00;;;;;;5068946;28;20296;-86
2021/09/16 09:31:24;;;;;;;1.53;1.27;;;18.90;1.00;;;;;;5075386;28;20195;-87
2021/09/16 09:33:50;;;;;;;2.23;1.37;;;18.70;1.00;;;;;;5080562;28;20194;-87
2021/09/16 09:36:19;;;;;;;3.17;1.30;;;18.80;1.00;;;;;;5077252;28;20744;-87
2021/09/16 09:38:56;;;;;;;5.17;1.40;;;18.80;1.00;;;;;;5073302;28;20212;-87
2021/09/16 09:41:34;;;;;;;1.53;1.43;;;18.80;1.00;;;;;;5079273;28;20211;-87
2021/09/16 09:44:19;;;;;;;2.30;1.23;;;18.90;1.00;;;;;;5077494;28;20226;-87
2021/09/16 09:46:52;;;;;;;1.57;1.47;;;18.80;1.00;;;;;;5062053;28;20197;-88
2021/09/16 09:49:22;;;;;;;2.63;1.30;;;18.90;1.00;;;;;;5067351;28;20204;-86
2021/09/16 09:51:52;;;;;;;1.83;1.47;;;19.00;1.00;;;;;;5080122;28;20260;-87
2021/09/16 09:54:34;;;;;;;1.23;1.13;;;19.30;1.00;;;;;;5079932;28;20200;-88
2021/09/16 09:57:00;;;;;;;2.70;1.43;;;;;;;;;;5077357;28;20219;-87
2021/09/16 09:59:26;;;;;;;2.47;1.50;;;19.60;1.00;;;;;;5081252;28;20292;-88
2021/09/16 10:02:04;;;;;;;1.43;1.33;;;19.70;1.00;;;;;;5068970;28;20195;-88
2021/09/16 10:04:31;;;;;;;2.07;1.47;;;;;;;;;;5073428;28;20229;-88
2021/09/16 10:07:00;;;;;;;4.17;2.13;;;19.90;1.00;;;;;;5078689;28;20188;-88
2021/09/16 10:09:26;;;;;;;2.77;1.80;;;19.90;1.00;;;;;;5079701;28;20195;-88
2021/09/16 10:11:55;;;;;;;1.70;1.60;;;19.80;1.00;;;;;;5072828;28;20193;-88
2021/09/16 10:14:21;;;;;;;3.13;1.60;;;19.80;1.00;;;;;;5073000;28;20275;-87
2021/09/16 10:16:47;;;;;;;2.37;1.90;;;;;;;;;;5078159;28;20292;-87
2021/09/16 10:19:13;;;;;;;3.57;2.10;;;19.40;1.00;;;;;;5060810;28;20214;-88
2021/09/16 10:21:41;;;;;;;3.83;2.03;;;19.40;1.00;;;;;;5076932;28;20188;-87
2021/09/16 10:24:08;;;;;;;3.17;2.10;;;19.50;1.00;;;;;;5078400;28;20197;-87
2021/09/16 10:26:40;;;;;;;3.10;2.27;;;19.70;1.00;;;;;;5074105;28;20194;-87
2021/09/16 10:29:28;;;;;;;3.70;2.20;;;19.70;1.00;;;;;;5067614;28;20663;-84
2021/09/16 10:32:06;;;;;;;2.57;2.13;;;19.70;1.00;;;;;;5077827;28;20221;-86
2021/09/16 10:34:47;;;;;;;3.43;2.10;;;19.70;1.00;;;;;;5078648;28;20281;-88
2021/09/16 10:37:15;;;;;;;1.87;1.73;;;19.60;1.00;;;;;;5078320;28;20566;-87
2021/09/16 10:39:43;;;;;;;2.47;2.27;;;19.70;1.00;;;;;;5074621;28;20208;-87
2021/09/16 10:42:10;;;;;;;4.03;2.20;;;19.70;1.00;;;;;;5072476;28;20188;-87
2021/09/16 10:44:37;;;;;;;2.40;2.20;;;19.60;1.00;;;;;;5078331;28;20211;-86
2021/09/16 10:47:22;;;;;;;2.40;2.20;;;19.70;1.00;;;;;;5065395;28;20184;-85
2021/09/16 10:49:51;;;;;;;2.60;2.40;;;19.90;1.00;;;;;;5062983;28;20203;-84
2021/09/16 10:52:27;;;;;;;2.93;2.23;;;19.90;1.00;;;;;;5079890;28;20199;-84
2021/09/16 10:54:57;;;;;;;2.87;2.67;;;19.90;1.00;;;;;;5077752;28;20210;-87
2021/09/16 10:57:29;;;;;;;3.70;2.30;;;20.00;1.00;;;;;;5078799;28;20191;-87
2021/09/16 10:59:55;;;;;;;2.30;2.07;;;;;;;;;;5077478;28;20270;-85
2021/09/16 11:02:25;;;;;;;4.43;2.87;;;;;;;;;;5080359;28;20542;-85
2021/09/16 11:04:59;;;;;;;3.57;2.50;;;19.50;1.00;;;;;;5077156;28;20209;-85
2021/09/16 11:07:35;;;;;;;3.43;2.70;;;19.50;1.00;;;;;;5075796;28;20265;-84
2021/09/16 11:10:16;;;;;;;2.80;2.60;;;;;;;;;;5076821;28;20186;-86
2021/09/16 11:12:42;;;;;;;5.43;2.73;;;;;;;;;;5077608;28;20201;-85
2021/09/16 11:15:10;;;;;;;2.70;2.50;;;20.00;1.00;;;;;;5077642;28;20225;-84
2021/09/16 11:17:41;;;;;;;3.53;2.60;;;19.90;1.00;;;;;;5079185;28;20176;-85
2021/09/16 11:20:09;;;;;;;3.17;2.43;;;19.90;1.00;;;;;;5060382;28;20216;-84
2021/09/16 11:22:53;;;;;;;4.13;2.13;;;;;;;;;;5087846;27;1316078;-85
2021/09/16 11:25:19;;;;;;;4.00;2.27;;;;;;;;;;5098754;28;20664;-84
2021/09/16 11:27:45;;;;;;;3.53;2.00;;;;;;;;;;5094254;28;20270;-85
2021/09/16 11:30:16;;;;;;;3.23;1.90;;;20.10;1.00;;;;;;5085552;28;20220;-85
2021/09/16 11:32:43;;;;;;;4.50;2.17;;;20.30;1.00;;;;;;5115226;28;20608;-85
2021/09/16 11:35:15;;;;;;;4.00;2.00;;;20.00;1.00;;;;;;5085925;28;20190;-86
2021/09/16 11:37:50;;;;;;;1.63;1.40;;;19.90;1.00;;;;;;5102777;28;20260;-85
2021/09/16 11:40:24;;;;;;;6.10;2.70;;;19.80;1.00;;;;;;5099870;28;20189;-88
2021/09/16 11:42:55;;;;;;;2.93;2.17;;;19.80;1.00;;;;;;5096236;28;20706;-87
2021/09/16 11:45:25;;;;;;;4.07;2.70;;;19.80;1.00;;;;;;5095061;28;20239;-87
2021/09/16 11:47:53;;;;;;;2.30;2.10;;;19.80;1.00;;;;;;5100429;28;20191;-86
2021/09/16 11:50:48;;;;;;;3.47;2.60;;;19.50;1.00;;;;;;5093490;28;20188;-86
2021/09/16 11:53:14;;;;;;;3.57;2.70;;;18.90;1.00;;;;;;5079288;28;20194;-88
2021/09/16 11:55:48;;;;;;;2.63;2.17;;;19.10;1.00;;;;;;5101219;28;20191;-88
2021/09/16 11:58:32;;;;;;;3.57;2.47;;;19.20;1.00;;;;;;5101610;28;20651;-86
2021/09/16 12:01:02;;;;;;;2.90;2.20;;;19.20;1.00;;;;;;5113743;28;20233;-86
2021/09/16 12:03:32;;;;;;;4.93;2.43;;;19.40;1.00;;;;;;5090294;28;20285;-87
2021/09/16 12:06:08;;;;;;;3.73;2.20;;;19.30;1.00;;;;;;5084660;28;20190;-86
2021/09/16 12:08:35;;;;;;;2.83;1.90;;;19.50;1.00;;;;;;5066882;28;20215;-86
2021/09/16 12:11:08;;;;;;;2.20;2.00;;;19.80;1.00;;;;;;5080116;28;20191;-87
2021/09/16 12:13:33;;;;;;;3.07;1.80;;;19.80;1.00;;;;;;5083869;28;20188;-87
2021/09/16 12:16:07;;;;;;;1.97;1.87;;;20.00;1.00;;;;;;5080596;28;20196;-83
2021/09/16 12:18:38;;;;;;;3.53;2.03;;;20.00;1.00;;;;;;5070475;28;20200;-84
2021/09/16 12:21:05;;;;;;;5.13;2.10;;;20.10;1.00;;;;;;5079686;28;20213;-84
2021/09/16 12:23:31;;;;;;;2.40;2.10;;;20.50;1.00;;;;;;5074246;28;20194;-87
2021/09/16 12:26:05;;;;;;;2.33;1.90;;;21.20;1.00;;;;;;5080395;28;20189;-84
2021/09/16 12:28:31;;;;;;;2.00;1.90;;;;;;;;;;5077144;28;20189;-83
2021/09/16 12:31:05;;;;;;;2.13;1.83;;;21.50;1.00;;;;;;5076299;28;20179;-85
2021/09/16 12:33:40;;;;;;;3.00;2.03;;;21.50;1.00;;;;;;5082039;28;20593;-85
2021/09/16 12:36:15;;;;;;;3.10;1.80;;;21.30;1.00;;;;;;5066543;28;20220;-87
2021/09/16 12:38:55;;;;;;;2.03;1.70;;;21.20;1.00;;;;;;5044430;28;20199;-87
2021/09/16 12:41:37;;;;;;;2.87;1.63;;;21.40;1.00;;;;;;5075352;28;20207;-86
2021/09/16 12:44:04;;;;;;;1.97;1.40;;;21.30;1.00;;;;;;5067951;28;20178;-84
2021/09/16 12:46:58;;;;;;;2.67;1.67;;;21.30;1.00;;;;;;5079610;28;20184;-87
2021/09/16 12:49:42;;;;;;;1.90;1.53;;;21.50;1.00;;;;;;5064594;28;20663;-87
2021/09/16 12:52:24;;;;;;;2.70;1.50;;;21.60;1.00;;;;;;5046353;28;20669;-86
2021/09/16 12:54:58;;;;;;;1.73;1.63;;;21.60;1.00;;;;;;5047475;28;20212;-86
2021/09/16 12:57:28;;;;;;;1.87;1.73;;;21.50;1.00;;;;;;5046138;28;20277;-87
2021/09/16 13:00:05;;;;;;;1.90;1.53;;;21.40;1.00;;;;;;5050096;28;20757;-86
2021/09/16 13:02:47;;;;;;;2.23;1.60;;;21.60;1.00;;;;;;5075864;28;20210;-85